Time;durP1;ratioP1;P1;durP2;ratioP2;P2;SDS_P1;SDS_P2;PMS_P1;PMS_P2;Temp;Humidity;BMP_temperature;BMP_pressure;BME280_temperature;BME280_humidity;BME280_pressure;Samples;Min_cycle;Max_cycle;Signal;HPM_P1;HPM_P2
2022/10/10 00:00:28;;;;;;;;;;;;;;;-144.99;96.70;52362.50;5063472;28;20303;-79
2022/10/10 00:02:54;;;;;;;;;;;;;;;-144.99;96.49;52374.72;5049398;28;19940;-78
2022/10/10 00:05:20;;;;;;;;;;;;;;;-144.99;97.13;52391.03;5037708;28;19945;-78
2022/10/10 00:07:47;;;;;;;;;;;;;;;-144.99;97.06;52348.22;5051105;28;19947;-79
2022/10/10 00:10:13;;;;;;;;;;;;;;;-144.99;96.68;52386.94;5051582;28;20400;-80
2022/10/10 00:12:39;;;;;;;;;;;;;;;-144.99;96.77;52368.59;5063872;28;20339;-81
2022/10/10 00:15:06;;;;;;;;;;;;;;;-144.99;96.78;52413.44;5046958;28;19940;-77
2022/10/10 00:17:34;;;;;;;;;;;;;;;-144.99;97.32;52378.78;4701303;28;10000300;-79
2022/10/10 00:20:00;;;;;;;;;;;;;;;-144.99;97.03;52374.72;5037813;28;19955;-81
2022/10/10 00:22:27;;;;;;;;;;;;;;;-144.99;97.37;52407.31;5053240;28;20012;-75
2022/10/10 00:24:53;;;;;;;;;;;;;;;-144.99;97.09;52391.03;5049627;28;19936;-79
2022/10/10 00:27:19;;;;;;;;;;;;;;;-144.99;97.60;52370.63;5070277;28;19925;-82
2022/10/10 00:29:46;;;;;;;;;;;;;;;-144.99;97.26;52386.94;5079636;28;19952;-81
2022/10/10 00:32:12;;;;;;;;;;;;;;;-144.99;97.17;52382.88;5065787;28;20168;-79
2022/10/10 00:34:40;;;;;;;;;;;;;;;-144.99;97.17;52395.09;5047535;28;19929;-78
2022/10/10 00:37:06;;;;;;;;;;;;;;;-144.99;96.52;52382.88;5052544;28;19932;-80
2022/10/10 00:39:32;;;;;;;;;;;;;;;-144.99;96.54;52391.03;5053376;28;19952;-78
2022/10/10 00:41:59;;;;;;;;;;;;;;;-144.99;96.78;52401.22;5055434;28;19925;-80
2022/10/10 00:44:27;;;;;;;;;;;;;;;-144.99;97.03;52388.97;5055963;28;19948;-78
2022/10/10 00:46:53;;;;;;;;;;;;;;;-144.99;96.80;52368.59;5061538;22;19925;-73
2022/10/10 00:49:22;;;;;;;;;;;;;;;-144.99;96.56;52370.63;5063075;28;19924;-72
2022/10/10 00:51:51;;;;;;;;;;;;;;;-144.99;97.11;52403.25;5062559;28;20067;-72
2022/10/10 00:54:19;;;;;;;;;;;;;;;-144.99;96.67;52407.31;5066622;28;19925;-72
2022/10/10 00:56:47;;;;;;;;;;;;;;;-144.99;96.84;52393.06;5055562;28;19931;-72
2022/10/10 00:59:14;;;;;;;;;;;;;;;-144.99;97.10;52382.88;5057733;28;19931;-72
2022/10/10 01:01:41;;;;;;;;;;;;;;;-144.99;96.83;52388.97;5055324;28;19929;-73
2022/10/10 01:04:22;;;;;;;;;;;;;;;-144.99;96.85;52362.50;5062350;28;19925;-72
2022/10/10 01:06:50;;;;;;;;;;;;;;;-144.99;96.98;52358.41;5060298;28;19935;-72
2022/10/10 01:09:16;;;;;;;;;;;;;;;-144.99;97.10;52350.25;5064903;28;19932;-72
2022/10/10 01:11:48;;;;;;;;;;;;;;;-144.99;97.01;52399.19;5066077;28;19925;-72
2022/10/10 01:14:18;;;;;;;;;;;;;;;-144.99;97.06;52366.56;5067999;28;19939;-73
2022/10/10 01:16:46;;;;;;;;;;;;;;;-144.99;96.91;52362.50;5068174;28;19936;-73
2022/10/10 01:19:24;;;;;;;;;;;;;;;-144.99;96.49;52437.91;5070355;28;19932;-72
2022/10/10 01:21:59;;;;;;;;;;;;;;;-144.99;97.05;52417.53;5056687;28;19924;-72
2022/10/10 01:24:30;;;;;;;;;;;;;;;-144.99;97.12;52386.94;5067964;28;19924;-72
2022/10/10 01:27:14;;;;;;;;;;;;;;;-144.99;97.07;52378.78;5049550;28;20300;-73
2022/10/10 01:29:45;;;;;;;;;;;;;;;-144.99;96.99;52346.19;5052494;28;19925;-72
2022/10/10 01:32:13;;;;;;;;;;;;;;;-144.99;97.23;52362.50;5050170;28;19924;-72
2022/10/10 01:34:45;;;;;;;;;;;;;;;-144.99;96.95;52437.91;5041109;28;19932;-72
2022/10/10 01:37:14;;;;;;;;;;;;;;;-144.99;97.17;52395.09;5044344;28;19931;-74
2022/10/10 01:39:42;;;;;;;;;;;;;;;-144.99;97.32;52386.94;5049571;28;19925;-72
2022/10/10 01:42:12;;;;;;;;;;;;;;;-144.99;97.26;52382.88;5047446;28;20435;-73
2022/10/10 01:44:43;;;;;;;;;;;;;;;-144.99;98.02;52358.41;5043917;28;19925;-72
2022/10/10 01:47:11;;;;;;;;;;;;;;;-144.99;97.98;52360.44;5049423;28;19954;-72
2022/10/10 01:49:38;;;;;;;;;;;;;;;-144.99;97.78;52382.88;5050610;28;19935;-71
2022/10/10 01:52:09;;;;;;;;;;;;;;;-144.99;97.90;52409.38;5041933;28;19924;-72
2022/10/10 01:54:41;;;;;;;;;;;;;;;-144.99;98.30;52374.72;5049939;28;20384;-72
2022/10/10 01:57:15;;;;;;;;;;;;;;;-144.99;97.92;52386.94;5051886;28;19925;-71
2022/10/10 01:59:46;;;;;;;;;;;;;;;-144.99;97.99;52354.34;5049093;28;19925;-73
2022/10/10 02:02:16;;;;;;;;;;;;;;;-144.99;97.63;52356.38;5038419;28;19925;-73
2022/10/10 02:04:48;;;;;;;;;;;;;;;-144.99;98.68;52378.78;5038650;28;19925;-73
2022/10/10 02:07:18;;;;;;;;;;;;;;;-144.99;98.37;52391.03;5050879;28;19932;-72
2022/10/10 02:09:46;;;;;;;;;;;;;;;-144.99;99.03;52386.94;5050382;28;20311;-73
2022/10/10 02:12:13;;;;;;;;;;;;;;;-144.99;99.00;52386.94;5042328;28;19936;-73
2022/10/10 02:14:42;;;;;;;;;;;;;;;-144.99;99.07;52395.09;5046916;28;19931;-74
2022/10/10 02:17:10;;;;;;;;;;;;;;;-144.99;99.16;52399.19;5050132;28;19936;-73
2022/10/10 02:19:38;;;;;;;;;;;;;;;-144.99;98.94;52401.22;5048545;28;19925;-73
2022/10/10 02:22:05;;;;;;;;;;;;;;;-144.99;99.88;52407.31;5047790;28;20300;-73
2022/10/10 02:24:31;;;;;;;;;;;;;;;-144.99;100.00;52395.09;5048975;28;20303;-73
2022/10/10 02:27:01;;;;;;;;;;;;;;;-144.99;100.00;52370.63;5049851;28;19932;-72
2022/10/10 02:29:31;;;;;;;;;;;;;;;-144.99;99.85;52378.78;5048460;28;19925;-72
2022/10/10 02:32:01;;;;;;;;;;;;;;;-144.99;99.85;52372.69;5053758;28;19950;-71
2022/10/10 02:34:29;;;;;;;;;;;;;;;-144.99;100.00;52374.72;5053593;28;20107;-72
2022/10/10 02:36:59;;;;;;;;;;;;;;;-144.99;99.76;52382.88;5054211;28;19932;-72
2022/10/10 02:39:29;;;;;;;;;;;;;;;-144.99;99.93;52395.09;5049634;28;19932;-72
2022/10/10 02:41:55;;;;;;;;;;;;;;;-144.99;100.00;52382.88;5052937;28;19924;-72
2022/10/10 02:44:23;;;;;;;;;;;;;;;-144.99;100.00;52403.25;5056711;28;19924;-73
2022/10/10 02:46:49;;;;;;;;;;;;;;;-144.99;100.00;52423.63;5057274;28;19932;-71
2022/10/10 02:49:22;;;;;;;;;;;;;;;-144.99;100.00;52386.94;5071126;28;19933;-72
2022/10/10 02:51:49;;;;;;;;;;;;;;;-144.99;100.00;52370.63;5066994;28;19929;-71
2022/10/10 02:54:16;;;;;;;;;;;;;;;-144.99;100.00;52391.03;5067385;28;19935;-71
2022/10/10 02:56:43;;;;;;;;;;;;;;;-144.99;100.00;52370.63;5070149;28;19925;-72
2022/10/10 02:59:09;;;;;;;;;;;;;;;-144.99;100.00;52407.31;5053030;28;19925;-71
2022/10/10 03:01:35;;;;;;;;;;;;;;;-144.99;100.00;52407.31;5051235;28;19925;-73
2022/10/10 03:04:02;;;;;;;;;;;;;;;-144.99;100.00;52370.63;5044267;28;19932;-73
2022/10/10 03:06:28;;;;;;;;;;;;;;;-144.99;100.00;52376.75;5053824;28;19928;-73
2022/10/10 03:08:54;;;;;;;;;;;;;;;-144.99;100.00;52388.97;5057940;28;19924;-72
2022/10/10 03:11:22;;;;;;;;;;;;;;;-144.99;100.00;52342.09;5063597;28;19955;-72
2022/10/10 03:13:48;;;;;;;;;;;;;;;-144.99;100.00;52427.72;5071664;28;19928;-74
2022/10/10 03:16:14;;;;;;;;;;;;;;;-144.99;100.00;52395.09;5075346;28;19925;-73
2022/10/10 03:18:41;;;;;;;;;;;;;;;-144.99;100.00;52362.50;5072348;28;19931;-73
2022/10/10 03:21:07;;;;;;;;;;;;;;;-144.99;100.00;52399.19;5068913;28;20171;-74
2022/10/10 03:23:34;;;;;;;;;;;;;;;-144.99;100.00;52419.56;5066211;28;19928;-75
2022/10/10 03:26:00;;;;;;;;;;;;;;;-144.99;100.00;52366.56;5068720;28;19970;-73
2022/10/10 03:28:28;;;;;;;;;;;;;;;-144.99;100.00;52391.03;5067931;28;19925;-75
2022/10/10 03:30:54;;;;;;;;;;;;;;;-144.99;100.00;52362.50;5064612;28;20182;-73
2022/10/10 03:33:21;;;;;;;;;;;;;;;-144.99;100.00;52391.03;5065795;28;19933;-73
2022/10/10 03:35:47;;;;;;;;;;;;;;;-144.99;100.00;52391.03;5061255;28;19925;-73
2022/10/10 03:38:14;;;;;;;;;;;;;;;-144.99;100.00;52399.19;5056912;28;19925;-72
2022/10/10 03:40:41;;;;;;;;;;;;;;;-144.99;100.00;52395.09;5060308;28;19935;-73
2022/10/10 03:43:07;;;;;;;;;;;;;;;-144.99;100.00;52366.56;5055566;28;19931;-72
2022/10/10 03:45:35;;;;;;;;;;;;;;;-144.99;100.00;52391.03;5068320;28;19925;-73
2022/10/10 03:48:01;;;;;;;;;;;;;;;-144.99;100.00;52384.91;5051168;28;19931;-72
2022/10/10 03:50:28;;;;;;;;;;;;;;;-144.99;100.00;52415.47;5044420;28;19931;-72
2022/10/10 03:52:54;;;;;;;;;;;;;;;-144.99;100.00;52386.94;5051107;28;19928;-72
2022/10/10 03:55:20;;;;;;;;;;;;;;;-144.99;100.00;52391.03;5054026;28;19931;-73
2022/10/10 03:57:47;;;;;;;;;;;;;;;-144.99;100.00;52388.97;5063075;28;19948;-72
2022/10/10 04:00:13;;;;;;;;;;;;;;;-144.99;100.00;52403.25;5052271;28;19925;-73
2022/10/10 04:02:41;;;;;;;;;;;;;;;-144.99;100.00;52391.03;5041303;28;19931;-74
2022/10/10 04:05:08;;;;;;;;;;;;;;;-144.99;100.00;52395.09;5056050;28;19948;-72
2022/10/10 04:07:34;;;;;;;;;;;;;;;-144.99;100.00;52362.50;5053563;28;19935;-72
2022/10/10 04:10:00;;;;;;;;;;;;;;;-144.99;100.00;52407.31;5051761;28;19929;-72
2022/10/10 04:12:27;;;;;;;;;;;;;;;-144.99;100.00;52376.75;5038928;28;19925;-74
2022/10/10 04:14:53;;;;;;;;;;;;;;;-144.99;100.00;52374.72;5050444;28;19933;-71
2022/10/10 04:17:19;;;;;;;;;;;;;;;-144.99;100.00;52407.31;5052927;28;19928;-73
2022/10/10 04:19:47;;;;;;;;;;;;;;;-144.99;100.00;52340.06;5050444;28;19925;-73
2022/10/10 04:22:15;;;;;;;;;;;;;;;-144.99;100.00;52382.88;5049245;28;19932;-73
2022/10/10 04:24:41;;;;;;;;;;;;;;;-144.99;100.00;52374.72;5055774;28;19932;-73
2022/10/10 04:27:08;;;;;;;;;;;;;;;-144.99;100.00;52415.47;5046554;28;20307;-73
2022/10/10 04:29:34;;;;;;;;;;;;;;;-144.99;100.00;52384.91;5051788;28;19932;-74
2022/10/10 04:32:01;;;;;;;;;;;;;;;-144.99;100.00;52403.25;5044577;28;19933;-73
2022/10/10 04:34:28;;;;;;;;;;;;;;;-144.99;100.00;52399.19;5054232;28;19925;-72
2022/10/10 04:36:55;;;;;;;;;;;;;;;-144.99;100.00;52423.63;5061572;28;20373;-73
2022/10/10 04:39:22;;;;;;;;;;;;;;;-144.99;100.00;52370.63;5052541;28;19924;-73
2022/10/10 04:41:48;;;;;;;;;;;;;;;-144.99;100.00;52403.25;5053076;28;19925;-73
2022/10/10 04:44:15;;;;;;;;;;;;;;;-144.99;100.00;52437.91;5055808;28;19931;-72
2022/10/10 04:46:41;;;;;;;;;;;;;;;-144.99;100.00;52403.25;5054043;28;19925;-71
2022/10/10 04:49:08;;;;;;;;;;;;;;;-144.99;100.00;52391.03;5041428;28;19925;-72
2022/10/10 04:51:34;;;;;;;;;;;;;;;-144.99;100.00;52366.56;5044049;28;19925;-71
2022/10/10 04:54:02;;;;;;;;;;;;;;;-144.99;100.00;52439.94;5048124;28;19954;-72
2022/10/10 04:56:28;;;;;;;;;;;;;;;-144.99;100.00;52421.59;5051372;28;19925;-72
2022/10/10 04:58:54;;;;;;;;;;;;;;;-144.99;100.00;52376.75;5054133;28;19932;-72
2022/10/10 05:01:21;;;;;;;;;;;;;;;-144.99;100.00;52391.03;5068941;28;19928;-73
2022/10/10 05:03:47;;;;;;;;;;;;;;;-144.99;100.00;52407.31;5068655;28;19929;-72
2022/10/10 05:06:13;;;;;;;;;;;;;;;-144.99;100.00;52403.25;5062720;28;19933;-72
2022/10/10 05:08:39;;;;;;;;;;;;;;;-144.99;100.00;52382.88;5049779;28;19929;-72
2022/10/10 05:11:07;;;;;;;;;;;;;;;-144.99;100.00;52435.88;5048171;28;19925;-71
2022/10/10 05:13:34;;;;;;;;;;;;;;;-144.99;100.00;52378.78;5046089;28;19929;-72
2022/10/10 05:16:00;;;;;;;;;;;;;;;-144.99;100.00;52395.09;5052604;28;19932;-72
2022/10/10 05:18:27;;;;;;;;;;;;;;;-144.99;100.00;52391.03;5036174;28;19932;-71
2022/10/10 05:20:53;;;;;;;;;;;;;;;-144.99;100.00;52399.19;5049120;28;20206;-70
2022/10/10 05:23:19;;;;;;;;;;;;;;;-144.99;100.00;52395.09;5048183;28;20077;-72
2022/10/10 05:25:48;;;;;;;;;;;;;;;-144.99;100.00;52391.03;5044915;28;20304;-71
2022/10/10 05:28:15;;;;;;;;;;;;;;;-144.99;100.00;52354.34;5049979;28;19932;-71
2022/10/10 05:30:42;;;;;;;;;;;;;;;-144.99;100.00;52374.72;5051878;28;19947;-71
2022/10/10 05:33:08;;;;;;;;;;;;;;;-144.99;100.00;52378.78;5050359;28;20300;-71
2022/10/10 05:35:34;;;;;;;;;;;;;;;-144.99;100.00;52378.78;5051850;28;20380;-71
2022/10/10 05:38:01;;;;;;;;;;;;;;;-144.99;100.00;52399.19;5047415;28;20415;-71
2022/10/10 05:40:27;;;;;;;;;;;;;;;-144.99;100.00;52372.69;5051119;28;19935;-71
2022/10/10 05:42:54;;;;;;;;;;;;;;;-144.99;100.00;52388.97;5050397;28;19932;-71
2022/10/10 05:45:21;;;;;;;;;;;;;;;-144.99;100.00;52395.09;5056171;28;19929;-72
2022/10/10 05:47:47;;;;;;;;;;;;;;;-144.99;100.00;52358.41;5042588;28;19932;-72
2022/10/10 05:50:22;;;;;;;;;;;;;;;-144.99;100.00;52386.94;5042439;28;19941;-72
2022/10/10 05:52:48;;;;;;;;;;;;;;;-144.99;100.00;52415.47;5056080;28;19948;-72
2022/10/10 05:55:15;;;;;;;;;;;;;;;-144.99;100.00;52382.88;5068883;28;19925;-72
2022/10/10 05:57:41;;;;;;;;;;;;;;;-144.99;100.00;52395.09;5070679;28;19925;-72
2022/10/10 06:00:08;;;;;;;;;;;;;;;-144.99;100.00;52374.72;5060319;28;20307;-73
2022/10/10 06:02:36;;;;;;;;;;;;;;;-144.99;100.00;52360.44;5050487;28;19932;-72
2022/10/10 06:05:03;;;;;;;;;;;;;;;-144.99;100.00;52374.72;5053699;28;19925;-72
2022/10/10 06:07:30;;;;;;;;;;;;;;;-144.99;100.00;52403.25;5054489;28;19932;-72
2022/10/10 06:09:56;;;;;;;;;;;;;;;-144.99;100.00;52395.09;5054097;28;19924;-72
2022/10/10 06:12:22;;;;;;;;;;;;;;;-144.99;100.00;52395.09;5053218;28;19925;-72
2022/10/10 06:14:48;;;;;;;;;;;;;;;-144.99;100.00;52370.63;5054514;28;19928;-72
2022/10/10 06:17:15;;;;;;;;;;;;;;;-144.99;100.00;52368.59;5054882;28;20384;-72
2022/10/10 06:19:42;;;;;;;;;;;;;;;-144.99;100.00;52360.44;5049407;28;20381;-72
2022/10/10 06:22:09;;;;;;;;;;;;;;;-144.99;100.00;52386.94;5051138;28;19925;-72
2022/10/10 06:24:35;;;;;;;;;;;;;;;-144.99;99.90;52354.34;5051860;28;19947;-71
2022/10/10 06:27:01;;;;;;;;;;;;;;;-144.99;98.89;52378.78;5055714;28;20292;-71
2022/10/10 06:29:28;;;;;;;;;;;;;;;-144.99;97.93;52358.41;5058297;28;19931;-71
2022/10/10 06:31:54;;;;;;;;;;;;;;;-144.99;97.39;52333.94;5051574;28;19925;-70
2022/10/10 06:34:20;;;;;;;;;;;;;;;-144.99;96.47;52374.72;5044677;28;19933;-72
2022/10/10 06:36:50;;;;;;;;;;;;;;;-144.99;95.63;52336.00;5054321;28;19932;-71
2022/10/10 06:39:16;;;;;;;;;;;;;;;-144.99;94.17;52346.19;5049707;28;20002;-72
2022/10/10 06:41:43;;;;;;;;;;;;;;;-144.99;93.04;52327.84;5057426;28;19929;-72
2022/10/10 06:44:09;;;;;;;;;;;;;;;-144.99;92.24;52378.78;5057834;28;19924;-71
2022/10/10 06:46:36;;;;;;;;;;;;;;;-144.99;89.98;52350.25;5066529;28;20401;-71
2022/10/10 06:49:02;;;;;;;;;;;;;;;-144.99;89.82;52325.81;5090158;22;19928;-77
2022/10/10 06:51:29;;;;;;;;;;;;;;;-144.99;87.97;52340.06;5086919;28;19928;-77
2022/10/10 06:53:57;;;;;;;;;;;;;;;-144.99;86.82;52333.94;5082918;28;19947;-76
2022/10/10 06:56:23;;;;;;;;;;;;;;;-144.99;85.80;52350.25;5089253;28;19938;-75
2022/10/10 06:58:50;;;;;;;;;;;;;;;-144.99;84.85;52333.94;5075664;28;20310;-79
2022/10/10 07:01:17;;;;;;;;;;;;;;;-144.99;83.92;52325.81;5091605;28;20306;-75
2022/10/10 07:03:44;;;;;;;;;;;;;;;-144.99;82.94;52358.41;5092160;28;19938;-77
2022/10/10 07:06:11;;;;;;;;;;;;;;;-144.99;82.54;52321.72;5093209;28;19979;-80
2022/10/10 07:08:37;;;;;;;;;;;;;;;-144.99;82.18;52299.31;5091915;28;19977;-76
2022/10/10 07:11:07;;;;;;;;;;;;;;;-144.99;80.91;52305.41;5082846;28;20454;-76
2022/10/10 07:13:33;;;;;;;;;;;;;;;-144.99;80.01;52336.00;5080574;28;19932;-82
2022/10/10 07:16:00;;;;;;;;;;;;;;;-144.99;79.24;52333.94;5104585;28;19950;-79
2022/10/10 07:18:26;;;;;;;;;;;;;;;-144.99;78.13;52297.25;5113466;28;19919;-84
2022/10/10 07:20:55;;;;;;;;;;;;;;;-144.99;77.12;52297.25;5098173;28;19924;-77
2022/10/10 07:23:21;;;;;;;;;;;;;;;-144.99;75.87;52327.84;5085663;28;19978;-76
2022/10/10 07:25:48;;;;;;;;;;;;;;;-144.99;75.23;52321.72;5093127;28;19958;-77
2022/10/10 07:28:15;;;;;;;;;;;;;;;-144.99;74.69;52289.13;5089754;28;19946;-75
2022/10/10 07:30:42;;;;;;;;;;;;;;;-144.99;74.43;52291.16;5081482;28;19924;-78
2022/10/10 07:33:09;;;;;;;;;;;;;;;-144.99;74.04;52315.59;5092001;28;20394;-80
2022/10/10 07:35:35;;;;;;;;;;;;;;;-144.99;73.51;52338.03;5093735;28;19924;-76
2022/10/10 07:38:02;;;;;;;;;;;;;;;-144.99;72.49;52321.72;5080764;28;19935;-78
2022/10/10 07:40:28;;;;;;;;;;;;;;;-144.99;72.03;52305.41;5085013;28;19931;-75
2022/10/10 07:42:55;;;;;;;;;;;;;;;-144.99;72.08;52340.06;5092077;28;20387;-80
2022/10/10 07:45:22;;;;;;;;;;;;;;;-144.99;71.46;52325.81;5093151;28;19924;-79
2022/10/10 07:47:49;;;;;;;;;;;;;;;-144.99;70.37;52305.41;5087584;28;20106;-77
2022/10/10 07:50:15;;;;;;;;;;;;;;;-144.99;70.22;52358.41;5092285;28;19924;-79
2022/10/10 07:52:41;;;;;;;;;;;;;;;-144.99;69.50;52329.88;5087327;28;20340;-80
2022/10/10 07:55:08;;;;;;;;;;;;;;;-144.99;68.34;52303.38;5085759;28;19931;-79
2022/10/10 07:57:35;;;;;;;;;;;;;;;-144.99;67.60;52315.59;5085742;28;19970;-79
2022/10/10 08:00:02;;;;;;;;;;;;;;;-144.99;66.97;52307.47;5091766;28;19967;-80
2022/10/10 08:02:30;;;;;;;;;;;;;;;-144.99;66.36;52258.53;5088866;28;19935;-82
2022/10/10 08:04:57;;;;;;;;;;;;;;;-144.99;64.97;52289.13;5114666;28;19935;-83
2022/10/10 08:07:23;;;;;;;;;;;;;;;-144.99;63.85;52280.97;5087312;28;20015;-80
2022/10/10 08:09:49;;;;;;;;;;;;;;;-144.99;63.06;52297.25;5088867;28;20379;-81
2022/10/10 08:12:16;;;;;;;;;;;;;;;-144.99;59.76;52272.81;5096014;28;19924;-83
2022/10/10 08:14:42;;;;;;;;;;;;;;;-144.99;60.80;52305.41;5102466;28;20003;-80
2022/10/10 08:17:09;;;;;;;;;;;;;;;-144.99;60.30;52305.41;5111337;28;19982;-79
2022/10/10 08:19:37;;;;;;;;;;;;;;;-144.99;61.51;52297.25;5097532;28;19967;-82
2022/10/10 08:22:03;;;;;;;;;;;;;;;-144.99;60.48;52321.72;5098424;28;20197;-81
2022/10/10 08:24:30;;;;;;;;;;;;;;;-144.99;59.74;52297.25;5089833;28;19928;-80
2022/10/10 08:26:56;;;;;;;;;;;;;;;-144.99;59.46;52291.16;5093519;28;20042;-83
2022/10/10 08:29:23;;;;;;;;;;;;;;;-144.99;59.80;52272.81;5081027;28;19971;-80
2022/10/10 08:31:50;;;;;;;;;;;;;;;-144.99;59.58;52276.88;5090212;28;20390;-80
2022/10/10 08:34:16;;;;;;;;;;;;;;;-144.99;58.07;52293.19;5094095;28;19931;-82
2022/10/10 08:36:44;;;;;;;;;;;;;;;-144.99;57.38;52240.19;5093185;28;19924;-80
2022/10/10 08:39:11;;;;;;;;;;;;;;;-144.99;56.72;52252.44;5091201;28;19924;-83
2022/10/10 08:41:40;;;;;;;;;;;;;;;-144.99;56.09;52325.81;5083637;28;19986;-80
2022/10/10 08:44:12;;;;;;;;;;;;;;;-144.99;55.15;52301.34;5094518;28;19947;-81
2022/10/10 08:46:41;;;;;;;;;;;;;;;-144.99;54.96;52323.75;5094169;28;19924;-78
2022/10/10 08:49:15;;;;;;;;;;;;;;;-144.99;54.91;52297.25;5090976;28;19924;-79
2022/10/10 08:51:42;;;;;;;;;;;;;;;-144.99;54.89;52289.13;5086976;28;19924;-78
2022/10/10 08:54:13;;;;;;;;;;;;;;;-144.99;54.48;52240.19;5091340;28;19924;-81
2022/10/10 08:56:41;;;;;;;;;;;;;;;-144.99;54.72;52276.88;5079338;28;19935;-79
2022/10/10 08:59:11;;;;;;;;;;;;;;;-144.99;53.94;52291.16;5091465;28;20458;-79
2022/10/10 09:01:38;;;;;;;;;;;;;;;-144.99;53.67;52268.72;5080477;28;19928;-77
2022/10/10 09:04:05;;;;;;;;;;;;;;;-144.99;53.80;52291.16;5081751;28;19928;-78
2022/10/10 09:06:38;;;;;;;;;;;;;;;-144.99;54.00;52225.94;5088861;28;19934;-81
2022/10/10 09:09:11;;;;;;;;;;;;;;;-144.99;51.65;52260.56;5091712;28;19935;-79
2022/10/10 09:11:47;;;;;;;;;;;;;;;-144.99;50.83;52215.75;5079834;28;20073;-83
2022/10/10 09:14:20;;;;;;;;;;;;;;;-144.99;50.47;52240.19;5104956;28;19943;-85
2022/10/10 09:16:50;;;;;;;;;;;;;;;-144.99;50.48;52219.81;5105277;28;19929;-80
2022/10/10 09:19:23;;;;;;;;;;;;;;;-144.99;49.78;52187.19;5080586;28;19924;-80
2022/10/10 09:21:51;;;;;;;;;;;;;;;-144.99;49.09;52227.97;5088260;28;20006;-81
2022/10/10 09:24:20;;;;;;;;;;;;;;;-144.99;48.55;52199.44;5085870;28;19946;-81
2022/10/10 09:26:49;;;;;;;;;;;;;;;-144.99;46.95;52183.13;5090663;28;19931;-79
2022/10/10 09:29:25;;;;;;;;;;;;;;;-144.99;45.77;52205.53;5089831;28;19928;-79
2022/10/10 09:31:54;;;;;;;;;;;;;;;-144.99;45.67;52162.75;5087444;28;20322;-80
2022/10/10 09:34:23;;;;;;;;;;;;;;;-144.99;45.31;52232.03;5087595;28;19924;-79
2022/10/10 09:36:50;;;;;;;;;;;;;;;-144.99;45.50;52217.78;5088812;28;19939;-79
2022/10/10 09:39:20;;;;;;;;;;;;;;;-144.99;45.25;52174.97;5087693;28;20011;-79
2022/10/10 09:41:54;;;;;;;;;;;;;;;-144.99;44.75;52191.28;5086500;28;20049;-79
2022/10/10 09:44:22;;;;;;;;;;;;;;;-144.99;44.44;52187.19;5089046;28;20307;-80
2022/10/10 09:46:48;;;;;;;;;;;;;;;-144.99;44.88;52199.44;5077520;28;19924;-81
2022/10/10 09:49:15;;;;;;;;;;;;;;;-144.99;44.63;52179.06;5079035;28;19924;-79
2022/10/10 09:51:42;;;;;;;;;;;;;;;-144.99;44.21;52207.59;5092920;28;20383;-80
2022/10/10 09:54:09;;;;;;;;;;;;;;;-144.99;43.79;52177.00;5092977;28;19924;-80
2022/10/10 09:56:40;;;;;;;;;;;;;;;-144.99;43.08;52142.38;5093504;28;20277;-80
2022/10/10 09:59:27;;;;;;;;;;;;;;;-144.99;43.23;52183.13;5091906;28;20015;-81
2022/10/10 10:02:01;;;;;;;;;;;;;;;-144.99;41.67;52136.25;5090812;28;20022;-80
2022/10/10 10:04:31;;;;;;;;;;;;;;;-144.99;41.45;52130.13;5089174;28;19924;-80
2022/10/10 10:07:04;;;;;;;;;;;;;;;-144.99;39.96;52077.16;5090549;28;20022;-81
2022/10/10 10:09:30;;;;;;;;;;;;;;;-144.99;40.06;52105.69;5104161;28;19996;-82
2022/10/10 10:11:57;;;;;;;;;;;;;;;-144.99;39.50;52089.38;5108014;28;19981;-85
2022/10/10 10:14:26;;;;;;;;;;;;;;;-144.99;39.00;52056.78;5108635;28;19935;-80
2022/10/10 10:16:53;;;;;;;;;;;;;;;-144.99;38.23;52105.69;5091120;28;19930;-80
2022/10/10 10:19:29;;;;;;;;;;;;;;;-144.99;38.79;52060.84;5084056;28;19924;-78
2022/10/10 10:21:56;;;;;;;;;;;;;;;-144.99;38.78;52060.84;5081745;28;20015;-79
2022/10/10 10:24:23;;;;;;;;;;;;;;;-144.99;38.26;52044.53;5087675;28;20390;-78
2022/10/10 10:26:50;;;;;;;;;;;;;;;-144.99;37.63;52016.00;5088558;28;19935;-79
2022/10/10 10:29:31;;;;;;;;;;;;;;;-144.99;37.31;51997.66;5081854;28;19927;-79
2022/10/10 10:32:00;;;;;;;;;;;;;;;-144.99;36.73;52036.38;5085279;28;20326;-79
2022/10/10 10:34:38;;;;;;;;;;;;;;;-144.99;36.52;51991.56;5085854;28;19931;-79
2022/10/10 10:37:11;;;;;;;;;;;;;;;-144.99;36.97;51991.56;5079687;28;19928;-79
2022/10/10 10:39:41;;;;;;;;;;;;;;;-144.99;36.59;51999.69;5086312;28;20024;-81
2022/10/10 10:42:15;;;;;;;;;;;;;;;-144.99;36.50;52073.06;5084993;28;20014;-80
2022/10/10 10:44:49;;;;;;;;;;;;;;;-144.99;37.60;52166.81;5095594;28;19924;-84
2022/10/10 10:47:24;;;;;;;;;;;;;;;-144.99;38.86;52187.19;5106706;28;19932;-80
2022/10/10 10:49:57;;;;;;;;;;;;;;;-144.99;40.05;52179.06;5093122;28;19924;-79
2022/10/10 10:52:51;;;;;;;;;;;;;;;-144.99;40.27;52146.44;5087055;28;19924;-80
2022/10/10 10:55:22;;;;;;;;;;;;;;;-144.99;39.30;52020.09;5088170;28;19924;-80
2022/10/10 10:57:59;;;;;;;;;;;;;;;-144.99;38.66;52020.09;5093830;28;19931;-79
2022/10/10 11:00:31;;;;;;;;;;;;;;;-144.99;38.44;52069.00;5098751;28;19975;-79
2022/10/10 11:03:09;;;;;;;;;;;;;;;-144.99;38.55;52119.94;5102633;28;19911;-83
2022/10/10 11:05:37;;;;;;;;;;;;;;;-144.99;38.07;52032.31;5100533;28;19928;-79
2022/10/10 11:08:18;;;;;;;;;;;;;;;-144.99;37.57;52024.16;5112776;28;19940;-84
2022/10/10 11:10:49;;;;;;;;;;;;;;;-144.99;36.77;51975.25;5115314;28;19963;-84
2022/10/10 11:13:23;;;;;;;;;;;;;;;-144.99;36.99;52024.16;5105527;28;19932;-78
2022/10/10 11:15:54;;;;;;;;;;;;;;;-144.99;37.82;52003.78;5112985;28;20602;-78
2022/10/10 11:18:24;;;;;;;;;;;;;;;-144.99;37.53;51963.03;5113288;28;19979;-83
2022/10/10 11:20:55;;;;;;;;;;;;;;;-144.99;37.59;52105.69;5106072;28;20014;-82
2022/10/10 11:23:24;;;;;;;;;;;;;;;-144.99;38.45;52207.59;5093928;28;19987;-80
2022/10/10 11:25:54;;;;;;;;;;;;;;;-144.99;39.19;52156.63;5088219;28;19939;-80
2022/10/10 11:28:22;;;;;;;;;;;;;;;-144.99;39.39;52189.25;5086306;28;20395;-81
2022/10/10 11:30:51;;;;;;;;;;;;;;;-144.99;40.44;52069.00;5077003;28;20310;-79
2022/10/10 11:33:21;;;;;;;;;;;;;;;-144.99;40.14;52048.63;5074870;28;19928;-76
2022/10/10 11:35:50;;;;;;;;;;;;;;;-144.99;39.93;52060.84;5077698;28;19935;-80
2022/10/10 11:38:19;;;;;;;;;;;;;;;-144.99;40.06;52099.56;5075430;28;19935;-82
2022/10/10 11:40:50;;;;;;;;;;;;;;;-144.99;40.35;52126.06;5078988;28;19939;-78
2022/10/10 11:43:19;;;;;;;;;;;;;;;-144.99;40.34;52166.81;5083282;28;19932;-80
2022/10/10 11:45:47;;;;;;;;;;;;;;;-144.99;41.93;52211.66;5082998;28;19932;-79
2022/10/10 11:48:18;;;;;;;;;;;;;;;-144.99;42.32;52199.44;5076115;28;19992;-77
2022/10/10 11:50:50;;;;;;;;;;;;;;;-144.99;41.73;52138.28;5079510;28;20064;-80
2022/10/10 11:53:19;;;;;;;;;;;;;;;-144.99;40.52;52030.28;5080659;28;19932;-80
2022/10/10 11:55:50;;;;;;;;;;;;;;;-144.99;39.16;52016.00;5075179;28;19954;-78
2022/10/10 11:58:27;;;;;;;;;;;;;;;-144.99;37.61;51979.31;5079957;28;21329;-80
2022/10/10 12:00:57;;;;;;;;;;;;;;;-144.99;37.56;51995.63;5076239;28;20313;-79
2022/10/10 12:03:24;;;;;;;;;;;;;;;-144.99;37.83;52085.31;5082508;28;20005;-86
2022/10/10 12:05:55;;;;;;;;;;;;;;;-144.99;38.63;52170.91;5104534;28;20956;-83
2022/10/10 12:08:23;;;;;;;;;;;;;;;-144.99;40.01;52085.31;5099169;28;20022;-83
2022/10/10 12:10:51;;;;;;;;;;;;;;;-144.99;40.17;52166.81;5081437;28;19928;-81
2022/10/10 12:13:26;;;;;;;;;;;;;;;-144.99;41.18;52183.13;5079378;28;20024;-80
2022/10/10 12:15:54;;;;;;;;;;;;;;;-144.99;41.87;52117.91;5082561;28;19928;-80
2022/10/10 12:18:25;;;;;;;;;;;;;;;-144.99;41.21;52166.81;5078796;28;19932;-81
2022/10/10 12:21:04;;;;;;;;;;;;;;;-144.99;41.30;52124.03;5081707;28;19925;-77
2022/10/10 12:23:31;;;;;;;;;;;;;;;-144.99;41.14;52075.09;5090660;28;19924;-79
2022/10/10 12:25:58;;;;;;;;;;;;;;;-144.99;40.08;52097.53;5096006;28;20302;-80
2022/10/10 12:28:26;;;;;;;;;;;;;;;-144.99;39.79;52075.09;5094636;28;19924;-78